Time;durP1;ratioP1;P1;durP2;ratioP2;P2;SDS_P1;SDS_P2;PMS_P1;PMS_P2;Temp;Humidity;BMP_temperature;BMP_pressure;BME280_temperature;BME280_humidity;BME280_pressure;Samples;Min_cycle;Max_cycle;Signal;HPM_P1;HPM_P2
2022/04/28 00:00:43;;;;;;;29.60;27.30;;;;;;;;;;5092951;28;20977;-84
2022/04/28 00:03:10;;;;;;;29.40;27.13;;;;;;;;;;5095935;28;20414;-84
2022/04/28 00:05:38;;;;;;;28.57;26.57;;;;;;;;;;5096656;28;20408;-85
2022/04/28 00:08:08;;;;;;;29.43;27.23;;;;;;;;;;5096658;28;20435;-85
2022/04/28 00:10:36;;;;;;;29.33;27.00;;;;;;;;;;5096972;28;20420;-84
2022/04/28 00:13:03;;;;;;;29.53;26.80;;;;;;;;;;5096469;28;20913;-84
2022/04/28 00:15:31;;;;;;;29.60;27.27;;;;;;;;;;5096722;28;20445;-85
2022/04/28 00:17:58;;;;;;;29.53;27.37;;;;;;;;;;5096244;28;20443;-83
2022/04/28 00:20:26;;;;;;;30.00;27.63;;;;;;;;;;5096778;28;20439;-84
2022/04/28 00:22:54;;;;;;;30.67;28.53;;;;;;;;;;5096714;28;20423;-85
2022/04/28 00:25:23;;;;;;;28.67;26.20;;;;;;;;;;5096482;28;20420;-85
2022/04/28 00:27:50;;;;;;;29.87;27.50;;;;;;;;;;5096282;28;20448;-84
2022/04/28 00:30:18;;;;;;;30.70;28.10;;;;;;;;;;5095219;28;20427;-84
2022/04/28 00:32:45;;;;;;;28.17;25.37;;;;;;;;;;5095847;28;20469;-84
2022/04/28 00:35:13;;;;;;;28.60;26.50;;;;;;;;;;5096177;28;20450;-84
2022/04/28 00:37:40;;;;;;;30.93;28.33;;;;;;;;;;5096029;28;20408;-84
2022/04/28 00:40:08;;;;;;;29.53;27.30;;;;;;;;;;5096161;28;20438;-84
2022/04/28 00:42:37;;;;;;;28.87;26.53;;;;;;;;;;5095977;28;20419;-84
2022/04/28 00:45:04;;;;;;;28.53;26.30;;;;;;;;;;5096208;28;20824;-84
2022/04/28 00:52:59;;;;;;;28.87;26.77;;;;;;;;;;5095960;28;20399;-84
2022/04/28 00:55:27;;;;;;;31.00;28.13;;;;;;;;;;5094303;28;20518;-84
2022/04/28 00:57:56;;;;;;;29.30;27.20;;;;;;;;;;5095520;28;20420;-84
2022/04/28 01:00:24;;;;;;;28.50;26.53;;;;;;;;;;5095979;28;20413;-83
2022/04/28 01:02:53;;;;;;;28.63;26.23;;;;;;;;;;5095552;28;20817;-83
2022/04/28 01:05:20;;;;;;;29.93;27.40;;;;;;;;;;5095524;28;20907;-86
2022/04/28 01:07:48;;;;;;;29.37;26.83;;;;;;;;;;5095466;28;20434;-84
2022/04/28 01:10:15;;;;;;;29.50;27.40;;;;;;;;;;5095536;28;20781;-84
2022/04/28 01:12:44;;;;;;;29.60;27.40;;;;;;;;;;5095754;28;20771;-84
2022/04/28 01:15:12;;;;;;;29.80;27.30;;;;;;;;;;5095522;28;20474;-85
2022/04/28 01:17:40;;;;;;;28.40;26.07;;;;;;;;;;5095325;28;20400;-85
2022/04/28 01:20:08;;;;;;;28.23;26.27;;;;;;;;;;5095119;28;20463;-84
2022/04/28 01:22:38;;;;;;;29.40;27.27;;;;;;;;;;5095481;28;20773;-84
2022/04/28 01:25:07;;;;;;;28.67;26.53;;;;;;;;;;5095537;28;20440;-84
2022/04/28 01:27:35;;;;;;;28.70;26.47;;;;;;;;;;5095218;28;20816;-84
2022/04/28 01:30:02;;;;;;;29.40;27.00;;;;;;;;;;5095264;28;20464;-84
2022/04/28 01:32:29;;;;;;;28.77;26.47;;;;;;;;;;5095105;28;20770;-84
2022/04/28 01:34:57;;;;;;;29.37;26.77;;;;;;;;;;5095658;28;20512;-85
2022/04/28 01:37:25;;;;;;;28.83;26.63;;;;;;;;;;5095409;28;20897;-85
2022/04/28 01:39:55;;;;;;;29.20;27.10;;;;;;;;;;5094841;28;20551;-85
2022/04/28 01:42:24;;;;;;;28.43;26.20;;;;;;;;;;5094411;28;20511;-83
2022/04/28 01:44:51;;;;;;;28.40;25.83;;;;;;;;;;5094747;28;21239;-84
2022/04/28 01:47:19;;;;;;;29.20;26.70;;;;;;;;;;5095073;28;20437;-84
2022/04/28 01:49:46;;;;;;;28.63;26.17;;;;;;;;;;5094633;28;20404;-85
2022/04/28 01:55:00;;;;;;;28.03;25.83;;;;;;;;;;5093504;28;20257;-85
2022/04/28 01:57:28;;;;;;;28.20;25.90;;;;;;;;;;5094322;28;20469;-85
2022/04/28 01:59:56;;;;;;;27.30;25.30;;;;;;;;;;5094411;28;20513;-85
2022/04/28 02:02:23;;;;;;;27.23;25.27;;;;;;;;;;5094689;28;20461;-84
2022/04/28 02:04:50;;;;;;;28.23;25.92;;;;;;;;;;5094486;28;20204;-85
2022/04/28 02:07:18;;;;;;;29.53;26.60;;;;;;;;;;5094162;28;20213;-84
2022/04/28 02:09:46;;;;;;;27.03;25.23;;;;;;;;;;5093540;28;20491;-84
2022/04/28 02:12:15;;;;;;;26.23;24.13;;;;;;;;;;5094230;28;20913;-84
2022/04/28 02:14:42;;;;;;;27.85;25.70;;;;;;;;;;5094112;28;20469;-85
2022/04/28 02:17:10;;;;;;;28.55;25.83;;;;;;;;;;5094596;28;20199;-85
2022/04/28 02:19:37;;;;;;;28.10;25.33;;;;;;;;;;5094202;28;20708;-85
2022/04/28 02:22:05;;;;;;;29.30;26.83;;;;;;;;;;5094123;27;20243;-84
2022/04/28 02:24:32;;;;;;;27.88;25.98;;;;;;;;;;5093655;28;20206;-84
2022/04/28 02:27:00;;;;;;;27.15;25.23;;;;;;;;;;5092667;28;20256;-84
2022/04/28 02:29:28;;;;;;;27.47;24.97;;;;;;;;;;5094146;28;20633;-84
2022/04/28 02:31:56;;;;;;;27.73;25.40;;;;;;;;;;5094006;28;20461;-84
2022/04/28 02:34:23;;;;;;;27.30;25.07;;;;;;;;;;5093835;28;20573;-84
2022/04/28 02:36:50;;;;;;;27.23;25.13;;;;;;;;;;5093968;28;20437;-85
2022/04/28 02:39:18;;;;;;;27.67;25.20;;;;;;;;;;5093801;28;20676;-84
2022/04/28 02:41:46;;;;;;;26.77;24.77;;;;;;;;;;5093645;28;20279;-84
2022/04/28 02:44:13;;;;;;;28.13;25.93;;;;;;;;;;5093732;28;20416;-85
2022/04/28 02:46:42;;;;;;;28.25;25.95;;;;;;;;;;5093963;28;20828;-84
2022/04/28 02:49:10;;;;;;;27.40;25.30;;;;;;;;;;5093589;28;20283;-85
2022/04/28 02:51:38;;;;;;;27.13;25.17;;;;;;;;;;5093686;28;20187;-84
2022/04/28 02:54:05;;;;;;;27.90;25.60;;;;;;;;;;5093737;28;20473;-84
2022/04/28 02:56:33;;;;;;;26.70;25.00;;;;;;;;;;5093773;28;20971;-84
2022/04/28 02:59:00;;;;;;;27.63;25.55;;;;;;;;;;5093876;28;20569;-85
2022/04/28 03:01:28;;;;;;;26.43;24.53;;;;;;;;;;5093697;28;20648;-83
2022/04/28 03:03:57;;;;;;;28.02;25.23;;;;;;;;;;5093806;28;20416;-85
2022/04/28 03:11:54;;;;;;;27.40;25.20;;;;;;;;;;5093714;28;20194;-84
2022/04/28 03:14:22;;;;;;;27.53;25.43;;;;;;;;;;5093663;28;20435;-84
2022/04/28 03:16:50;;;;;;;29.67;26.80;;;;;;;;;;5093926;28;20442;-84
2022/04/28 03:19:19;;;;;;;27.60;25.40;;;;;;;;;;5093482;28;20223;-85
2022/04/28 03:21:46;;;;;;;27.93;25.93;;;;;;;;;;5093713;28;20416;-85
2022/04/28 03:24:14;;;;;;;27.37;25.47;;;;;;;;;;5092415;28;20441;-84
2022/04/28 03:26:41;;;;;;;27.85;25.55;;;;;;;;;;5093358;28;20426;-85
2022/04/28 03:29:09;;;;;;;29.17;26.47;;;;;;;;;;5093460;28;20187;-84
2022/04/28 03:31:36;;;;;;;27.98;25.73;;;;;;;;;;5093336;28;20897;-85
2022/04/28 03:34:03;;;;;;;26.85;24.20;;;;;;;;;;5093387;28;20314;-85
2022/04/28 03:39:17;;;;;;;26.98;24.85;;;;;;;;;;5097355;28;20460;-85
2022/04/28 03:41:44;;;;;;;27.13;25.15;;;;;;;;;;5097494;28;20194;-84
2022/04/28 03:44:11;;;;;;;27.70;25.60;;;;;;;;;;5097276;28;20198;-82
2022/04/28 03:46:39;;;;;;;27.63;25.45;;;;;;;;;;5097501;28;20411;-85
2022/04/28 03:49:06;;;;;;;28.63;26.40;;;;;;;;;;5097447;28;20653;-85
2022/04/28 03:51:35;;;;;;;29.63;27.13;;;;;;;;;;5097082;28;20601;-85
2022/04/28 03:54:03;;;;;;;28.67;26.52;;;;;;;;;;5097269;28;20235;-85
2022/04/28 03:56:31;;;;;;;28.13;26.02;;;;;;;;;;5095756;28;20203;-85
2022/04/28 03:58:58;;;;;;;29.38;26.92;;;;;;;;;;5097096;28;20230;-85
2022/04/28 04:01:26;;;;;;;27.98;25.67;;;;;;;;;;5097063;28;20233;-85
2022/04/28 04:03:53;;;;;;;28.00;25.30;;;;;;;;;;5097281;28;20192;-84
2022/04/28 04:06:21;;;;;;;28.90;26.73;;;;;;;;;;5095938;28;20874;-85
2022/04/28 04:08:50;;;;;;;27.88;25.98;;;;;;;;;;5097140;28;20550;-83
2022/04/28 04:11:17;;;;;;;27.73;25.57;;;;;;;;;;5096774;28;20621;-83
2022/04/28 04:13:45;;;;;;;28.33;25.93;;;;;;;;;;5096389;28;20429;-83
2022/04/28 04:16:12;;;;;;;28.83;26.40;;;;;;;;;;5094772;28;20507;-82
2022/04/28 04:18:39;;;;;;;29.90;27.35;;;;;;;;;;5096397;28;20195;-82
2022/04/28 04:21:07;;;;;;;29.15;26.80;;;;;;;;;;5095951;28;20218;-83
2022/04/28 04:23:34;;;;;;;29.45;27.05;;;;;;;;;;5096383;28;20187;-83
2022/04/28 04:26:03;;;;;;;28.08;25.98;;;;;;;;;;5096065;28;20694;-82
2022/04/28 04:28:30;;;;;;;28.88;26.70;;;;;;;;;;5078090;28;20252;-83
2022/04/28 04:33:43;;;;;;;26.88;24.67;;;;;;;;;;5095747;28;20226;-82
2022/04/28 04:36:10;;;;;;;28.58;26.08;;;;;;;;;;5095793;28;20187;-83
2022/04/28 04:38:37;;;;;;;28.70;26.30;;;;;;;;;;5095685;28;20196;-82
2022/04/28 04:41:10;;;;;;;28.73;26.27;;;;;;;;;;5095564;28;20480;-83
2022/04/28 04:43:37;;;;;;;28.33;26.13;;;;;;;;;;5095574;28;20256;-82
2022/04/28 04:46:05;;;;;;;27.88;25.77;;;;;;;;;;5095728;28;20207;-83
2022/04/28 04:48:33;;;;;;;28.90;26.30;;;;;;;;;;5095276;28;20203;-82
2022/04/28 04:51:02;;;;;;;28.40;26.20;;;;;;;;;;5095735;28;20215;-83
2022/04/28 04:53:30;;;;;;;28.67;26.20;;;;;;;;;;5095483;28;20544;-83
2022/04/28 04:55:57;;;;;;;28.60;26.30;;;;;;;;;;5095589;28;20416;-82
2022/04/28 04:58:26;;;;;;;29.60;27.30;;;;;;;;;;5095472;28;20188;-83
2022/04/28 05:00:54;;;;;;;29.87;27.27;;;;;;;;;;5095152;28;20485;-83
2022/04/28 05:03:21;;;;;;;27.40;25.60;;;;;;;;;;5095071;28;20441;-84
2022/04/28 05:05:48;;;;;;;28.58;25.98;;;;;;;;;;5094898;28;20184;-82
2022/04/28 05:08:16;;;;;;;27.17;25.20;;;;;;;;;;5095288;28;20198;-82
2022/04/28 05:10:43;;;;;;;28.08;25.88;;;;;;;;;;5095015;28;20462;-82
2022/04/28 05:13:11;;;;;;;29.83;26.80;;;;;;;;;;5095188;28;20211;-83
2022/04/28 05:15:40;;;;;;;29.33;26.98;;;;;;;;;;5095391;28;20416;-83
2022/04/28 05:18:07;;;;;;;27.88;25.50;;;;;;;;;;5094801;28;20645;-82
2022/04/28 05:20:34;;;;;;;29.87;27.30;;;;;;;;;;5094588;28;20237;-88
2022/04/28 05:23:02;;;;;;;27.90;25.65;;;;;;;;;;5094764;28;20448;-83
2022/04/28 05:25:30;;;;;;;28.60;26.40;;;;;;;;;;5094568;28;20614;-83
2022/04/28 05:27:58;;;;;;;30.30;27.90;;;;;;;;;;5094393;28;20480;-83
2022/04/28 05:30:25;;;;;;;27.03;24.70;;;;;;;;;;5094789;28;20416;-82
2022/04/28 05:32:54;;;;;;;28.70;26.25;;;;;;;;;;5094185;28;20473;-82
2022/04/28 05:35:21;;;;;;;28.00;26.00;;;;;;;;;;5094427;28;20223;-83
2022/04/28 05:37:49;;;;;;;29.48;26.90;;;;;;;;;;5094395;28;20412;-83
2022/04/28 05:40:16;;;;;;;27.70;25.57;;;;;;;;;;5094070;28;20560;-83
2022/04/28 05:45:45;;;;;;;28.63;26.33;;;;;;;;;;5094279;28;20191;-82
2022/04/28 05:48:14;;;;;;;27.27;24.85;;;;;;;;;;5094232;28;20532;-82
2022/04/28 05:50:42;;;;;;;28.27;25.90;;;;;;;;;;5094548;28;20191;-82
2022/04/28 05:53:10;;;;;;;27.93;25.63;;;;;;;;;;5094522;28;20464;-83
2022/04/28 05:55:37;;;;;;;28.88;26.65;;;;;;;;;;5094024;28;20817;-82
2022/04/28 05:58:05;;;;;;;29.23;26.53;;;;;;;;;;5094317;28;20241;-82
2022/04/28 06:00:33;;;;;;;27.90;25.83;;;;;;;;;;5093202;28;20485;-82
2022/04/28 06:03:00;;;;;;;28.43;26.00;;;;;;;;;;5094085;28;20438;-82
2022/04/28 06:05:29;;;;;;;27.80;25.70;;;;;;;;;;5094177;28;20490;-83
2022/04/28 06:07:56;;;;;;;26.60;24.70;;;;;;;;;;5093825;28;20448;-82
2022/04/28 06:10:24;;;;;;;27.63;25.33;;;;;;;;;;5093796;28;20453;-82
2022/04/28 06:12:51;;;;;;;26.90;24.70;;;;;;;;;;5093997;28;20430;-83
2022/04/28 06:15:19;;;;;;;27.33;25.13;;;;;;;;;;5094074;28;20445;-83
2022/04/28 06:17:46;;;;;;;28.13;25.27;;;;;;;;;;5093535;28;20540;-83
2022/04/28 06:20:13;;;;;;;28.27;25.73;;;;;;;;;;5093486;28;20473;-81
2022/04/28 06:22:42;;;;;;;27.17;25.30;;;;;;;;;;5093808;28;20445;-83
2022/04/28 06:25:10;;;;;;;27.30;25.10;;;;;;;;;;5093784;28;20455;-82
2022/04/28 06:27:38;;;;;;;27.93;25.67;;;;;;;;;;5093911;28;20449;-82
2022/04/28 06:30:06;;;;;;;27.10;24.70;;;;;;;;;;5093613;28;20453;-83
2022/04/28 06:32:33;;;;;;;26.70;24.50;;;;;;;;;;5093521;28;20522;-83
2022/04/28 06:35:02;;;;;;;29.23;25.60;;;;;;;;;;5093691;28;20433;-82
2022/04/28 06:37:30;;;;;;;25.33;23.43;;;;;;;;;;5093273;28;20438;-82
2022/04/28 06:39:59;;;;;;;26.50;24.40;;;;;;;;;;5093245;28;20455;-82
2022/04/28 06:42:26;;;;;;;27.30;24.80;;;;;;;;;;5093379;28;20439;-82
2022/04/28 06:44:53;;;;;;;28.03;25.43;;;;;;;;;;5093677;28;20434;-82
2022/04/28 06:47:22;;;;;;;26.90;24.90;;;;;;;;;;5092169;28;20784;-82
2022/04/28 06:49:49;;;;;;;25.73;23.90;;;;;;;;;;5093294;28;20498;-80
2022/04/28 06:52:17;;;;;;;26.07;24.20;;;;;;;;;;5094116;28;20448;-82
2022/04/28 06:54:44;;;;;;;25.77;23.80;;;;;;;;;;5093626;28;20835;-83
2022/04/28 06:57:13;;;;;;;26.47;24.57;;;;;;;;;;5093543;28;20433;-83
2022/04/28 06:59:40;;;;;;;26.73;24.60;;;;;;;;;;5073428;28;20875;-87
2022/04/28 07:02:08;;;;;;;26.50;24.70;;;;;;;;;;5073839;28;20417;-88
2022/04/28 07:04:36;;;;;;;26.23;24.20;;;;;;;;;;5072973;28;20491;-82
2022/04/28 07:07:03;;;;;;;26.73;24.67;;;;;;;;;;5072555;28;20439;-82
2022/04/28 07:09:30;;;;;;;26.20;24.20;;;;;;;;;;5072639;28;20439;-82
2022/04/28 07:11:58;;;;;;;27.37;25.57;;;;;;;;;;5075320;28;20499;-82
2022/04/28 07:14:26;;;;;;;26.33;24.20;;;;;;;;;;5075995;28;20404;-82
2022/04/28 07:16:54;;;;;;;26.03;23.87;;;;;;;;;;5075673;28;20505;-84
2022/04/28 07:19:21;;;;;;;26.83;24.60;;;;;;;;;;5077008;28;21047;-83
2022/04/28 07:21:49;;;;;;;26.27;24.23;;;;;;;;;;5075344;28;20485;-82
2022/04/28 07:24:16;;;;;;;26.83;24.53;;;;;;;;;;5076849;28;20424;-82
2022/04/28 07:26:43;;;;;;;28.10;25.50;;;;;;;;;;5076738;28;20862;-82
2022/04/28 07:29:10;;;;;;;28.10;25.83;;;;;;;;;;5076703;28;20413;-82
2022/04/28 07:31:39;;;;;;;28.23;25.80;;;;;;;;;;5076388;28;20431;-82
2022/04/28 07:34:07;;;;;;;28.90;26.20;;;;;;;;;;5058543;28;20437;-83
2022/04/28 07:36:34;;;;;;;27.70;25.57;;;;;;;;;;5076440;28;20455;-82
2022/04/28 07:39:01;;;;;;;27.80;25.80;;;;;;;;;;5076268;28;21133;-82
2022/04/28 07:41:29;;;;;;;27.33;25.37;;;;;;;;;;5076189;28;20563;-82
2022/04/28 07:43:57;;;;;;;26.87;24.50;;;;;;;;;;5075045;28;20439;-81
2022/04/28 07:46:24;;;;;;;28.33;25.73;;;;;;;;;;5076197;28;20934;-82
2022/04/28 07:48:53;;;;;;;29.63;26.90;;;;;;;;;;5076199;28;20431;-82
2022/04/28 07:51:20;;;;;;;27.20;25.30;;;;;;;;;;5076433;28;20481;-83
2022/04/28 07:53:47;;;;;;;27.53;25.33;;;;;;;;;;5075933;28;20416;-83
2022/04/28 07:56:15;;;;;;;27.57;25.47;;;;;;;;;;5076397;28;20428;-82
2022/04/28 07:58:43;;;;;;;27.33;25.30;;;;;;;;;;5076381;28;20421;-80
2022/04/28 08:01:11;;;;;;;27.87;25.60;;;;;;;;;;5074586;28;20456;-80
2022/04/28 08:03:38;;;;;;;28.47;26.40;;;;;;;;;;5077321;28;20462;-92
2022/04/28 08:06:10;;;;;;;29.73;27.27;;;;;;;;;;5077815;28;20796;-92
2022/04/28 08:08:38;;;;;;;28.23;25.93;;;;;;;;;;5082018;28;20553;-89
2022/04/28 08:11:05;;;;;;;27.57;25.33;;;;;;;;;;5078451;28;20489;-92
2022/04/28 08:13:34;;;;;;;27.63;25.30;;;;;;;;;;5080423;28;20446;-92
2022/04/28 08:16:01;;;;;;;27.17;25.37;;;;;;;;;;5078863;28;20512;-93
2022/04/28 08:18:30;;;;;;;28.30;26.07;;;;;;;;;;5079301;28;20809;-82
2022/04/28 08:20:58;;;;;;;27.77;25.50;;;;;;;;;;5083885;28;20453;-96
2022/04/28 08:23:29;;;;;;;29.07;26.40;;;;;;;;;;5088828;28;20529;-93
2022/04/28 08:25:56;;;;;;;27.63;25.70;;;;;;;;;;5090481;28;20449;-89
2022/04/28 08:28:23;;;;;;;27.27;25.17;;;;;;;;;;5079391;28;20428;-91
2022/04/28 08:30:51;;;;;;;27.20;25.60;;;;;;;;;;5078550;28;20417;-92
2022/04/28 08:33:19;;;;;;;28.20;26.03;;;;;;;;;;5082608;28;20820;-95
2022/04/28 08:35:46;;;;;;;27.57;25.13;;;;;;;;;;5076425;28;20425;-84
2022/04/28 08:38:13;;;;;;;27.03;24.90;;;;;;;;;;5075468;28;20438;-80
2022/04/28 08:40:44;;;;;;;30.97;28.10;;;;;;;;;;5075455;28;20441;-89
2022/04/28 08:43:13;;;;;;;30.90;28.20;;;;;;;;;;5075131;28;20416;-83
2022/04/28 08:46:50;;;;;;;30.47;27.80;;;;;;;;;;5076762;28;20429;-89
2022/04/28 08:48:32;;;;;;;29.30;26.83;;;;;;;;;;5077327;28;20464;-92
2022/04/28 08:51:00;;;;;;;28.60;26.47;;;;;;;;;;5079184;28;20444;-92
2022/04/28 08:53:28;;;;;;;29.90;27.20;;;;;;;;;;5077415;28;20433;-81
2022/04/28 08:55:57;;;;;;;29.07;26.80;;;;;;;;;;5075532;28;20453;-89
2022/04/28 08:58:25;;;;;;;29.83;26.83;;;;;;;;;;5076002;28;20433;-88
2022/04/28 09:00:53;;;;;;;28.07;25.70;;;;;;;;;;5076436;28;20517;-90
2022/04/28 09:03:20;;;;;;;29.20;27.20;;;;;;;;;;5075974;28;20482;-83
2022/04/28 09:05:49;;;;;;;31.33;28.70;;;;;;;;;;5075526;28;20849;-83
2022/04/28 09:08:17;;;;;;;30.20;27.80;;;;;;;;;;5075135;28;20411;-83
2022/04/28 09:10:45;;;;;;;29.57;27.37;;;;;;;;;;5075303;28;20898;-84
2022/04/28 09:15:59;;;;;;;30.33;27.60;;;;;;;;;;5074978;28;20399;-85
2022/04/28 09:18:26;;;;;;;31.17;28.10;;;;;;;;;;5075154;28;20899;-82
2022/04/28 09:20:53;;;;;;;27.90;26.00;;;;;;;;;;5075387;28;20449;-83
2022/04/28 09:23:21;;;;;;;30.37;27.50;;;;;;;;;;5075024;28;20799;-87
2022/04/28 09:25:48;;;;;;;29.33;27.03;;;;;;;;;;5074437;28;20442;-82
2022/04/28 09:28:19;;;;;;;27.13;24.70;;;;;;;;;;5074748;28;20812;-82
2022/04/28 09:30:49;;;;;;;30.27;27.77;;;;;;;;;;5073055;28;20417;-83
2022/04/28 09:33:16;;;;;;;30.93;28.37;;;;;;;;;;5074128;28;20437;-83
2022/04/28 09:35:48;;;;;;;30.73;28.00;;;;;;;;;;5073402;28;20473;-82
2022/04/28 09:38:15;;;;;;;31.43;28.63;;;;;;;;;;5074407;28;20413;-82
2022/04/28 09:43:32;;;;;;;31.20;28.87;;;;;;;;;;5074181;28;20422;-82
2022/04/28 09:46:00;;;;;;;32.23;29.33;;;;;;;;;;5072698;28;20512;-82
2022/04/28 09:48:29;;;;;;;31.40;28.83;;;;;;;;;;5073823;28;20451;-82
2022/04/28 09:51:00;;;;;;;31.57;29.00;;;;;;;;;;5073686;28;20424;-82
2022/04/28 09:53:30;;;;;;;30.07;27.67;;;;;;;;;;5073737;28;20874;-82
2022/04/28 09:55:58;;;;;;;32.07;29.13;;;;;;;;;;5073438;28;20448;-83
2022/04/28 09:58:27;;;;;;;30.60;28.00;;;;;;;;;;5073747;28;20442;-82
2022/04/28 10:01:00;;;;;;;31.83;29.13;;;;;;;;;;5073629;28;20470;-82
2022/04/28 10:03:30;;;;;;;31.73;29.23;;;;;;;;;;5073733;28;20413;-82
2022/04/28 10:05:58;;;;;;;32.60;30.00;;;;;;;;;;5073721;28;20413;-81
2022/04/28 10:08:25;;;;;;;32.43;29.93;;;;;;;;;;5073397;28;20470;-82
2022/04/28 10:10:55;;;;;;;32.83;30.10;;;;;;;;;;5073564;28;20448;-82
2022/04/28 10:13:23;;;;;;;32.10;29.60;;;;;;;;;;5073810;28;20475;-80
2022/04/28 10:15:52;;;;;;;32.77;30.00;;;;;;;;;;5073125;28;20484;-82
2022/04/28 10:18:24;;;;;;;33.33;31.00;;;;;;;;;;5073445;28;21035;-81
2022/04/28 10:20:55;;;;;;;31.93;29.23;;;;;;;;;;5073278;28;20455;-81
2022/04/28 10:34:33;;;;;;;32.63;29.93;;;;;;;;;;5073114;28;20429;-80
2022/04/28 10:37:01;;;;;;;31.00;28.50;;;;;;;;;;5073336;28;20446;-82
2022/04/28 10:39:39;;;;;;;32.47;29.70;;;;;;;;;;5073209;28;20433;-81
2022/04/28 10:42:14;;;;;;;31.87;29.37;;;;;;;;;;5073137;28;20492;-81
2022/04/28 10:44:49;;;;;;;32.67;29.80;;;;;;;;;;5073136;28;20839;-81
2022/04/28 10:47:22;;;;;;;33.07;30.07;;;;;;;;;;5072396;28;20416;-82
2022/04/28 10:49:55;;;;;;;33.30;30.40;;;;;;;;;;5073299;28;20774;-85
2022/04/28 10:52:23;;;;;;;32.83;29.93;;;;;;;;;;5073157;28;20420;-85
2022/04/28 10:54:53;;;;;;;32.47;29.50;;;;;;;;;;5072766;28;20513;-81
2022/04/28 10:57:34;;;;;;;30.17;27.70;;;;;;;;;;5052512;28;20818;-80
2022/04/28 11:00:03;;;;;;;32.13;29.63;;;;;;;;;;5053276;28;20542;-81
2022/04/28 11:02:51;;;;;;;31.27;28.73;;;;;;;;;;5052382;28;20483;-81
2022/04/28 11:05:37;;;;;;;32.57;29.97;;;;;;;;;;5052476;28;20441;-81
2022/04/28 11:08:10;;;;;;;34.40;31.50;;;;;;;;;;5052514;28;20896;-81
2022/04/28 11:10:52;;;;;;;32.60;30.00;;;;;;;;;;5052421;28;20914;-81
2022/04/28 11:13:24;;;;;;;33.20;30.80;;;;;;;;;;5052272;28;20438;-81
2022/04/28 11:15:51;;;;;;;33.20;30.70;;;;;;;;;;5052641;28;20439;-80
2022/04/28 11:18:19;;;;;;;31.70;29.40;;;;;;;;;;5052451;28;20414;-81
2022/04/28 11:20:46;;;;;;;32.43;29.87;;;;;;;;;;5052310;28;20910;-81
2022/04/28 11:23:19;;;;;;;32.30;29.90;;;;;;;;;;5052358;28;20453;-81
2022/04/28 11:25:46;;;;;;;33.60;30.83;;;;;;;;;;5052604;28;20418;-81
2022/04/28 11:28:14;;;;;;;31.43;29.03;;;;;;;;;;5052556;28;20443;-80
2022/04/28 11:30:43;;;;;;;33.20;30.40;;;;;;;;;;5052288;28;20505;-81
2022/04/28 11:33:13;;;;;;;33.17;30.30;;;;;;;;;;5051975;28;20446;-80
2022/04/28 11:35:40;;;;;;;33.50;30.80;;;;;;;;;;5052500;28;20418;-80
2022/04/28 11:38:08;;;;;;;33.07;30.27;;;;;;;;;;5052168;28;20417;-81
2022/04/28 11:40:38;;;;;;;33.70;30.37;;;;;;;;;;5052391;28;20451;-81
2022/04/28 11:43:06;;;;;;;30.97;27.90;;;;;;;;;;5052001;28;20464;-80
2022/04/28 11:45:33;;;;;;;31.83;29.53;;;;;;;;;;5052373;28;20422;-80
2022/04/28 11:48:01;;;;;;;32.57;29.37;;;;;;;;;;5052292;28;20901;-80
2022/04/28 11:50:30;;;;;;;33.10;30.43;;;;;;;;;;5052603;28;20418;-80
2022/04/28 11:53:03;;;;;;;32.80;30.03;;;;;;;;;;5052773;28;20846;-80
2022/04/28 11:55:33;;;;;;;32.33;29.30;;;;;;;;;;5052253;28;20478;-81
2022/04/28 11:58:03;;;;;;;31.93;29.40;;;;;;;;;;5053212;28;20422;-81
2022/04/28 12:00:37;;;;;;;32.20;29.70;;;;;;;;;;5055752;28;20414;-81
2022/04/28 12:03:04;;;;;;;31.10;28.87;;;;;;;;;;5055512;28;20838;-81
2022/04/28 12:05:32;;;;;;;31.60;29.13;;;;;;;;;;5055573;28;20414;-81
2022/04/28 12:08:00;;;;;;;34.20;31.23;;;;;;;;;;5055543;28;20422;-81
2022/04/28 12:16:00;;;;;;;32.93;29.93;;;;;;;;;;5055522;28;20413;-81
2022/04/28 12:21:17;;;;;;;32.83;30.20;;;;;;;;;;5055485;28;20460;-80
2022/04/28 12:23:45;;;;;;;31.90;29.50;;;;;;;;;;5055379;28;20501;-81
2022/04/28 12:26:13;;;;;;;32.80;30.20;;;;;;;;;;5055666;28;20451;-81
2022/04/28 12:28:43;;;;;;;33.97;31.07;;;;;;;;;;5055336;28;20888;-81
2022/04/28 12:31:10;;;;;;;34.63;31.70;;;;;;;;;;5055331;28;20916;-81
2022/04/28 12:33:39;;;;;;;33.67;30.93;;;;;;;;;;5055289;28;20414;-81
2022/04/28 12:36:07;;;;;;;32.60;30.23;;;;;;;;;;5055566;28;20496;-81
2022/04/28 12:38:35;;;;;;;32.00;29.43;;;;;;;;;;5055257;28;20424;-81
2022/04/28 12:41:13;;;;;;;33.87;31.27;;;;;;;;;;5055264;28;20466;-81
2022/04/28 12:43:44;;;;;;;30.97;28.77;;;;;;;;;;5055041;28;20457;-82
2022/04/28 12:46:14;;;;;;;33.00;30.33;;;;;;;;;;5054749;28;20418;-81
2022/04/28 12:48:43;;;;;;;31.87;29.37;;;;;;;;;;5054697;28;20448;-80
2022/04/28 12:51:11;;;;;;;34.13;31.37;;;;;;;;;;5055064;28;20446;-79
2022/04/28 12:53:39;;;;;;;31.67;29.23;;;;;;;;;;5054945;28;20448;-85
2022/04/28 12:56:08;;;;;;;30.60;28.00;;;;;;;;;;5055451;28;20909;-84
2022/04/28 12:58:39;;;;;;;33.33;30.83;;;;;;;;;;5055297;28;20440;-86
2022/04/28 13:01:11;;;;;;;33.17;30.57;;;;;;;;;;5055215;28;20824;-86
2022/04/28 13:03:39;;;;;;;32.57;29.80;;;;;;;;;;5055341;28;20552;-86
2022/04/28 13:06:06;;;;;;;32.93;30.33;;;;;;;;;;5055396;28;20462;-86
2022/04/28 13:08:34;;;;;;;33.77;31.07;;;;;;;;;;5054996;28;20450;-85
2022/04/28 13:11:01;;;;;;;32.13;29.73;;;;;;;;;;5055657;28;20542;-86
2022/04/28 13:13:29;;;;;;;31.70;29.30;;;;;;;;;;5055151;28;20443;-85
2022/04/28 13:15:56;;;;;;;31.50;29.23;;;;;;;;;;5055314;28;20471;-86
2022/04/28 13:18:25;;;;;;;31.90;29.27;;;;;;;;;;5055229;28;20426;-86
2022/04/28 13:20:53;;;;;;;33.47;30.77;;;;;;;;;;5054892;28;20440;-86
2022/04/28 13:23:21;;;;;;;31.17;29.07;;;;;;;;;;5054208;28;20572;-86
2022/04/28 13:25:48;;;;;;;31.60;29.10;;;;;;;;;;5054820;28;20962;-86
2022/04/28 13:28:16;;;;;;;30.53;28.43;;;;;;;;;;5055282;28;20421;-86
2022/04/28 13:30:43;;;;;;;32.47;29.80;;;;;;;;;;5054824;28;20439;-86
2022/04/28 13:33:11;;;;;;;32.67;30.23;;;;;;;;;;5054774;28;20448;-86
2022/04/28 13:35:40;;;;;;;32.07;29.77;;;;;;;;;;5055284;28;20414;-86
2022/04/28 13:38:09;;;;;;;31.77;29.33;;;;;;;;;;5054920;28;20749;-86
2022/04/28 13:40:36;;;;;;;31.90;29.40;;;;;;;;;;5054980;28;20530;-86
2022/04/28 13:43:04;;;;;;;31.67;29.37;;;;;;;;;;5054928;28;20564;-86
2022/04/28 13:45:31;;;;;;;31.43;29.23;;;;;;;;;;5054734;28;20847;-86
2022/04/28 13:47:59;;;;;;;31.93;29.63;;;;;;;;;;5054975;28;20447;-86
2022/04/28 13:50:26;;;;;;;31.27;29.00;;;;;;;;;;5054543;28;20418;-86
2022/04/28 13:52:55;;;;;;;31.70;29.33;;;;;;;;;;5054578;28;20443;-86
2022/04/28 13:55:22;;;;;;;30.73;28.57;;;;;;;;;;5054293;28;20890;-84
2022/04/28 13:57:50;;;;;;;32.47;30.07;;;;;;;;;;5054611;28;20447;-86
2022/04/28 14:00:18;;;;;;;33.10;30.70;;;;;;;;;;5054961;28;20425;-86
2022/04/28 14:02:45;;;;;;;32.43;30.00;;;;;;;;;;5054404;28;20463;-86
2022/04/28 14:05:13;;;;;;;33.30;31.00;;;;;;;;;;5054141;28;20418;-85
2022/04/28 14:07:41;;;;;;;32.10;29.90;;;;;;;;;;5053335;28;20414;-85
2022/04/28 14:10:10;;;;;;;31.27;28.60;;;;;;;;;;5054293;28;20425;-85
2022/04/28 14:12:38;;;;;;;30.77;28.53;;;;;;;;;;5053829;28;20487;-85
2022/04/28 14:15:07;;;;;;;30.20;28.03;;;;;;;;;;5053924;28;20546;-84
2022/04/28 14:17:35;;;;;;;32.47;29.60;;;;;;;;;;5053414;28;20957;-84
2022/04/28 14:20:02;;;;;;;33.30;30.33;;;;;;;;;;5053683;28;20464;-84
2022/04/28 14:22:30;;;;;;;31.97;29.73;;;;;;;;;;5069090;28;20475;-85
2022/04/28 14:24:58;;;;;;;30.70;28.50;;;;;;;;;;5053993;28;20760;-83
2022/04/28 14:27:27;;;;;;;32.93;30.50;;;;;;;;;;5036716;28;20447;-85
2022/04/28 14:29:54;;;;;;;32.57;30.10;;;;;;;;;;5053684;28;20440;-85
2022/04/28 14:32:22;;;;;;;32.13;29.87;;;;;;;;;;5053688;28;20475;-84
2022/04/28 14:34:49;;;;;;;37.60;31.10;;;;;;;;;;5053838;28;20436;-84
2022/04/28 14:37:16;;;;;;;30.83;28.50;;;;;;;;;;5053321;28;20447;-84
2022/04/28 14:39:44;;;;;;;32.70;30.20;;;;;;;;;;5053781;28;20435;-84
2022/04/28 14:42:11;;;;;;;31.77;29.53;;;;;;;;;;5053146;28;20457;-85
2022/04/28 14:44:40;;;;;;;33.23;30.47;;;;;;;;;;5053654;28;20414;-84
2022/04/28 14:47:07;;;;;;;32.00;29.20;;;;;;;;;;5053471;28;20417;-85
2022/04/28 14:52:23;;;;;;;32.10;29.60;;;;;;;;;;5053264;28;20409;-86
2022/04/28 14:54:53;;;;;;;31.23;29.13;;;;;;;;;;5053402;28;20846;-85
2022/04/28 14:57:21;;;;;;;31.90;29.27;;;;;;;;;;5068689;28;20504;-85
2022/04/28 14:59:51;;;;;;;30.90;28.37;;;;;;;;;;5053222;28;20453;-86
2022/04/28 15:02:19;;;;;;;32.33;29.87;;;;;;;;;;5053493;28;20772;-86
2022/04/28 15:04:46;;;;;;;32.00;29.60;;;;;;;;;;5053373;28;20439;-85
2022/04/28 15:07:14;;;;;;;30.17;28.17;;;;;;;;;;5069087;28;20433;-85
2022/04/28 15:09:42;;;;;;;29.57;27.47;;;;;;;;;;5053138;28;20410;-86
2022/04/28 15:12:09;;;;;;;31.03;28.93;;;;;;;;;;5053188;28;20460;-86